sensor_id;sensor_type;location;lat;lon;timestamp;P1;durP1;ratioP1;P2;durP2;ratioP2
12429;SDS011;6279;42.192;24.326;2023-02-28T00:01:01;8.97;;;5.70;;
12429;SDS011;6279;42.192;24.326;2023-02-28T00:03:27;11.03;;;5.80;;
12429;SDS011;6279;42.192;24.326;2023-02-28T00:05:52;7.17;;;5.20;;
12429;SDS011;6279;42.192;24.326;2023-02-28T00:08:18;9.03;;;5.93;;
12429;SDS011;6279;42.192;24.326;2023-02-28T00:10:43;11.10;;;5.63;;
12429;SDS011;6279;42.192;24.326;2023-02-28T00:13:09;6.40;;;4.97;;
12429;SDS011;6279;42.192;24.326;2023-02-28T00:15:34;6.37;;;4.77;;
12429;SDS011;6279;42.192;24.326;2023-02-28T00:18:03;8.03;;;5.07;;
12429;SDS011;6279;42.192;24.326;2023-02-28T00:20:28;8.67;;;4.87;;
12429;SDS011;6279;42.192;24.326;2023-02-28T00:22:54;9.33;;;4.90;;
12429;SDS011;6279;42.192;24.326;2023-02-28T00:25:21;10.73;;;5.67;;
12429;SDS011;6279;42.192;24.326;2023-02-28T00:27:51;10.70;;;5.20;;
12429;SDS011;6279;42.192;24.326;2023-02-28T00:30:20;8.77;;;5.73;;
12429;SDS011;6279;42.192;24.326;2023-02-28T00:32:48;9.80;;;5.47;;
12429;SDS011;6279;42.192;24.326;2023-02-28T00:35:14;8.00;;;4.73;;
12429;SDS011;6279;42.192;24.326;2023-02-28T00:37:40;7.50;;;4.80;;
12429;SDS011;6279;42.192;24.326;2023-02-28T00:40:07;7.13;;;4.70;;
12429;SDS011;6279;42.192;24.326;2023-02-28T00:42:37;9.23;;;5.30;;
12429;SDS011;6279;42.192;24.326;2023-02-28T00:45:03;10.43;;;5.47;;
12429;SDS011;6279;42.192;24.326;2023-02-28T00:47:29;7.33;;;4.40;;
12429;SDS011;6279;42.192;24.326;2023-02-28T00:49:55;5.73;;;4.80;;
12429;SDS011;6279;42.192;24.326;2023-02-28T00:52:21;7.07;;;5.20;;
12429;SDS011;6279;42.192;24.326;2023-02-28T00:54:46;8.47;;;4.90;;
12429;SDS011;6279;42.192;24.326;2023-02-28T00:57:12;7.10;;;5.00;;
12429;SDS011;6279;42.192;24.326;2023-02-28T00:59:37;7.87;;;4.40;;
12429;SDS011;6279;42.192;24.326;2023-02-28T01:02:02;5.40;;;4.60;;
12429;SDS011;6279;42.192;24.326;2023-02-28T01:04:28;12.60;;;5.00;;
12429;SDS011;6279;42.192;24.326;2023-02-28T01:06:53;11.43;;;5.77;;
12429;SDS011;6279;42.192;24.326;2023-02-28T01:09:18;8.00;;;5.20;;
12429;SDS011;6279;42.192;24.326;2023-02-28T01:11:44;9.67;;;4.80;;
12429;SDS011;6279;42.192;24.326;2023-02-28T01:14:14;9.27;;;6.03;;
12429;SDS011;6279;42.192;24.326;2023-02-28T01:16:41;11.20;;;6.47;;
12429;SDS011;6279;42.192;24.326;2023-02-28T01:19:07;11.97;;;6.47;;
12429;SDS011;6279;42.192;24.326;2023-02-28T01:21:33;11.20;;;6.40;;
12429;SDS011;6279;42.192;24.326;2023-02-28T01:23:59;12.63;;;6.90;;
12429;SDS011;6279;42.192;24.326;2023-02-28T01:26:25;10.90;;;6.20;;
12429;SDS011;6279;42.192;24.326;2023-02-28T01:28:51;8.90;;;6.33;;
12429;SDS011;6279;42.192;24.326;2023-02-28T01:31:18;11.13;;;6.73;;
12429;SDS011;6279;42.192;24.326;2023-02-28T01:33:44;10.43;;;6.87;;
12429;SDS011;6279;42.192;24.326;2023-02-28T01:36:12;9.90;;;5.97;;
12429;SDS011;6279;42.192;24.326;2023-02-28T01:38:45;10.07;;;6.00;;
12429;SDS011;6279;42.192;24.326;2023-02-28T01:46:13;7.87;;;6.00;;
12429;SDS011;6279;42.192;24.326;2023-02-28T01:48:43;9.37;;;6.17;;
12429;SDS011;6279;42.192;24.326;2023-02-28T01:54:11;10.90;;;6.17;;
12429;SDS011;6279;42.192;24.326;2023-02-28T01:56:50;11.33;;;6.30;;
12429;SDS011;6279;42.192;24.326;2023-02-28T01:59:22;9.40;;;5.77;;
12429;SDS011;6279;42.192;24.326;2023-02-28T02:01:54;10.20;;;5.73;;
12429;SDS011;6279;42.192;24.326;2023-02-28T02:04:20;9.00;;;5.70;;
12429;SDS011;6279;42.192;24.326;2023-02-28T02:06:48;10.47;;;6.00;;
12429;SDS011;6279;42.192;24.326;2023-02-28T02:09:13;8.40;;;5.87;;
12429;SDS011;6279;42.192;24.326;2023-02-28T02:11:40;8.20;;;6.10;;
12429;SDS011;6279;42.192;24.326;2023-02-28T02:22:35;8.63;;;6.03;;
12429;SDS011;6279;42.192;24.326;2023-02-28T02:28:22;10.97;;;6.37;;
12429;SDS011;6279;42.192;24.326;2023-02-28T02:30:59;8.70;;;5.77;;
12429;SDS011;6279;42.192;24.326;2023-02-28T02:36:23;6.97;;;5.57;;
12429;SDS011;6279;42.192;24.326;2023-02-28T02:38:53;9.77;;;5.90;;
12429;SDS011;6279;42.192;24.326;2023-02-28T02:41:33;7.93;;;5.30;;
12429;SDS011;6279;42.192;24.326;2023-02-28T02:44:12;8.67;;;5.90;;
12429;SDS011;6279;42.192;24.326;2023-02-28T02:46:51;8.07;;;5.27;;
12429;SDS011;6279;42.192;24.326;2023-02-28T02:49:30;11.23;;;5.67;;
12429;SDS011;6279;42.192;24.326;2023-02-28T02:52:00;7.47;;;5.77;;
12429;SDS011;6279;42.192;24.326;2023-02-28T02:54:33;8.13;;;5.77;;
12429;SDS011;6279;42.192;24.326;2023-02-28T02:57:09;12.27;;;8.60;;
12429;SDS011;6279;42.192;24.326;2023-02-28T02:59:40;11.13;;;7.23;;
12429;SDS011;6279;42.192;24.326;2023-02-28T03:02:08;13.37;;;7.50;;
12429;SDS011;6279;42.192;24.326;2023-02-28T03:04:48;10.80;;;6.90;;
12429;SDS011;6279;42.192;24.326;2023-02-28T03:07:18;9.23;;;5.60;;
12429;SDS011;6279;42.192;24.326;2023-02-28T03:09:54;12.13;;;6.77;;
12429;SDS011;6279;42.192;24.326;2023-02-28T03:12:21;9.80;;;6.07;;
12429;SDS011;6279;42.192;24.326;2023-02-28T03:26:04;14.77;;;6.83;;
12429;SDS011;6279;42.192;24.326;2023-02-28T03:28:32;13.00;;;5.97;;
12429;SDS011;6279;42.192;24.326;2023-02-28T03:33:51;14.20;;;6.73;;
12429;SDS011;6279;42.192;24.326;2023-02-28T03:36:25;12.60;;;6.33;;
12429;SDS011;6279;42.192;24.326;2023-02-28T03:39:01;11.30;;;5.60;;
12429;SDS011;6279;42.192;24.326;2023-02-28T03:41:36;13.87;;;6.70;;
12429;SDS011;6279;42.192;24.326;2023-02-28T03:44:09;12.17;;;6.40;;
12429;SDS011;6279;42.192;24.326;2023-02-28T03:46:46;15.03;;;6.97;;
12429;SDS011;6279;42.192;24.326;2023-02-28T03:49:25;15.50;;;7.33;;
12429;SDS011;6279;42.192;24.326;2023-02-28T03:51:55;16.13;;;7.93;;
12429;SDS011;6279;42.192;24.326;2023-02-28T03:54:26;11.23;;;6.63;;
12429;SDS011;6279;42.192;24.326;2023-02-28T03:56:59;20.57;;;8.23;;
12429;SDS011;6279;42.192;24.326;2023-02-28T03:59:30;12.00;;;6.57;;
12429;SDS011;6279;42.192;24.326;2023-02-28T04:02:02;15.20;;;7.13;;
12429;SDS011;6279;42.192;24.326;2023-02-28T04:04:27;15.10;;;6.70;;
12429;SDS011;6279;42.192;24.326;2023-02-28T04:06:53;11.20;;;6.50;;
12429;SDS011;6279;42.192;24.326;2023-02-28T04:09:27;15.47;;;7.47;;
12429;SDS011;6279;42.192;24.326;2023-02-28T04:11:52;16.03;;;7.60;;
12429;SDS011;6279;42.192;24.326;2023-02-28T04:14:18;13.80;;;7.53;;
12429;SDS011;6279;42.192;24.326;2023-02-28T04:16:44;14.03;;;6.60;;
12429;SDS011;6279;42.192;24.326;2023-02-28T04:19:10;11.87;;;7.53;;
12429;SDS011;6279;42.192;24.326;2023-02-28T04:21:40;14.67;;;8.17;;
12429;SDS011;6279;42.192;24.326;2023-02-28T04:24:08;16.43;;;8.77;;
12429;SDS011;6279;42.192;24.326;2023-02-28T04:26:39;14.67;;;8.60;;
12429;SDS011;6279;42.192;24.326;2023-02-28T04:29:06;15.73;;;9.30;;
12429;SDS011;6279;42.192;24.326;2023-02-28T04:31:32;15.57;;;9.30;;
12429;SDS011;6279;42.192;24.326;2023-02-28T04:33:58;18.23;;;9.60;;
12429;SDS011;6279;42.192;24.326;2023-02-28T04:36:24;14.83;;;8.37;;
12429;SDS011;6279;42.192;24.326;2023-02-28T04:38:50;13.20;;;7.23;;
12429;SDS011;6279;42.192;24.326;2023-02-28T04:41:16;16.03;;;9.80;;
12429;SDS011;6279;42.192;24.326;2023-02-28T04:43:41;12.03;;;7.43;;
12429;SDS011;6279;42.192;24.326;2023-02-28T04:46:07;14.20;;;7.60;;
12429;SDS011;6279;42.192;24.326;2023-02-28T04:48:35;13.50;;;8.70;;
12429;SDS011;6279;42.192;24.326;2023-02-28T04:51:02;15.77;;;9.80;;
12429;SDS011;6279;42.192;24.326;2023-02-28T04:53:33;20.93;;;10.53;;
12429;SDS011;6279;42.192;24.326;2023-02-28T04:55:59;18.17;;;10.20;;
12429;SDS011;6279;42.192;24.326;2023-02-28T04:58:25;15.10;;;10.00;;
12429;SDS011;6279;42.192;24.326;2023-02-28T05:00:51;14.40;;;9.97;;
12429;SDS011;6279;42.192;24.326;2023-02-28T05:03:18;14.03;;;9.93;;
12429;SDS011;6279;42.192;24.326;2023-02-28T05:05:44;16.33;;;10.77;;
12429;SDS011;6279;42.192;24.326;2023-02-28T05:08:09;17.53;;;9.77;;
12429;SDS011;6279;42.192;24.326;2023-02-28T05:10:35;19.87;;;10.43;;
12429;SDS011;6279;42.192;24.326;2023-02-28T05:13:01;16.87;;;10.33;;
12429;SDS011;6279;42.192;24.326;2023-02-28T05:15:27;18.23;;;11.00;;
12429;SDS011;6279;42.192;24.326;2023-02-28T05:17:55;21.47;;;10.00;;
12429;SDS011;6279;42.192;24.326;2023-02-28T05:20:20;15.27;;;8.80;;
12429;SDS011;6279;42.192;24.326;2023-02-28T05:22:46;12.30;;;7.37;;
12429;SDS011;6279;42.192;24.326;2023-02-28T05:25:13;8.80;;;6.17;;
12429;SDS011;6279;42.192;24.326;2023-02-28T05:27:42;18.50;;;9.67;;
12429;SDS011;6279;42.192;24.326;2023-02-28T05:30:07;16.20;;;10.10;;
12429;SDS011;6279;42.192;24.326;2023-02-28T05:32:36;14.13;;;10.23;;
12429;SDS011;6279;42.192;24.326;2023-02-28T05:35:08;14.33;;;8.77;;
12429;SDS011;6279;42.192;24.326;2023-02-28T05:37:37;12.87;;;8.10;;
12429;SDS011;6279;42.192;24.326;2023-02-28T05:40:03;14.57;;;9.50;;
12429;SDS011;6279;42.192;24.326;2023-02-28T05:42:35;17.80;;;11.77;;
12429;SDS011;6279;42.192;24.326;2023-02-28T05:45:01;16.63;;;10.60;;
12429;SDS011;6279;42.192;24.326;2023-02-28T05:47:26;15.90;;;10.87;;
12429;SDS011;6279;42.192;24.326;2023-02-28T05:49:52;16.03;;;10.53;;
12429;SDS011;6279;42.192;24.326;2023-02-28T05:52:17;12.80;;;8.43;;
12429;SDS011;6279;42.192;24.326;2023-02-28T05:54:43;14.40;;;8.40;;
12429;SDS011;6279;42.192;24.326;2023-02-28T05:57:08;8.17;;;5.70;;
12429;SDS011;6279;42.192;24.326;2023-02-28T05:59:33;13.47;;;8.27;;
12429;SDS011;6279;42.192;24.326;2023-02-28T06:01:59;15.97;;;10.17;;
12429;SDS011;6279;42.192;24.326;2023-02-28T06:04:24;18.17;;;10.43;;
12429;SDS011;6279;42.192;24.326;2023-02-28T06:06:50;13.40;;;8.27;;
12429;SDS011;6279;42.192;24.326;2023-02-28T06:09:16;14.93;;;9.33;;
12429;SDS011;6279;42.192;24.326;2023-02-28T06:11:42;15.30;;;9.53;;
12429;SDS011;6279;42.192;24.326;2023-02-28T06:14:12;14.23;;;8.87;;
12429;SDS011;6279;42.192;24.326;2023-02-28T06:16:41;14.30;;;9.77;;
12429;SDS011;6279;42.192;24.326;2023-02-28T06:19:06;17.13;;;11.50;;
12429;SDS011;6279;42.192;24.326;2023-02-28T06:21:31;14.33;;;8.90;;
12429;SDS011;6279;42.192;24.326;2023-02-28T06:23:57;14.27;;;10.20;;
12429;SDS011;6279;42.192;24.326;2023-02-28T06:26:25;15.93;;;10.40;;
12429;SDS011;6279;42.192;24.326;2023-02-28T06:28:50;16.40;;;11.33;;
12429;SDS011;6279;42.192;24.326;2023-02-28T06:31:16;16.03;;;8.60;;
12429;SDS011;6279;42.192;24.326;2023-02-28T06:33:43;18.57;;;11.23;;
12429;SDS011;6279;42.192;24.326;2023-02-28T06:36:10;16.63;;;10.00;;
12429;SDS011;6279;42.192;24.326;2023-02-28T06:38:37;17.47;;;10.47;;
12429;SDS011;6279;42.192;24.326;2023-02-28T06:41:03;14.37;;;10.37;;
12429;SDS011;6279;42.192;24.326;2023-02-28T06:43:31;16.63;;;10.00;;
12429;SDS011;6279;42.192;24.326;2023-02-28T06:45:59;15.60;;;11.60;;
12429;SDS011;6279;42.192;24.326;2023-02-28T06:48:26;20.47;;;12.77;;
12429;SDS011;6279;42.192;24.326;2023-02-28T06:50:52;17.90;;;11.60;;
12429;SDS011;6279;42.192;24.326;2023-02-28T06:53:25;18.73;;;12.00;;
12429;SDS011;6279;42.192;24.326;2023-02-28T06:55:51;18.67;;;10.53;;
12429;SDS011;6279;42.192;24.326;2023-02-28T06:58:16;20.33;;;12.87;;
12429;SDS011;6279;42.192;24.326;2023-02-28T07:00:45;14.90;;;10.17;;
12429;SDS011;6279;42.192;24.326;2023-02-28T07:03:11;17.93;;;12.13;;
12429;SDS011;6279;42.192;24.326;2023-02-28T07:05:37;23.00;;;12.83;;
12429;SDS011;6279;42.192;24.326;2023-02-28T07:08:04;22.67;;;13.27;;
12429;SDS011;6279;42.192;24.326;2023-02-28T07:10:31;23.13;;;13.23;;
12429;SDS011;6279;42.192;24.326;2023-02-28T07:12:57;25.80;;;12.67;;
12429;SDS011;6279;42.192;24.326;2023-02-28T07:15:23;24.47;;;13.57;;
12429;SDS011;6279;42.192;24.326;2023-02-28T07:17:48;12.53;;;8.50;;
12429;SDS011;6279;42.192;24.326;2023-02-28T07:20:14;24.33;;;13.47;;
12429;SDS011;6279;42.192;24.326;2023-02-28T07:22:39;23.00;;;12.40;;
12429;SDS011;6279;42.192;24.326;2023-02-28T07:25:05;16.43;;;11.23;;
12429;SDS011;6279;42.192;24.326;2023-02-28T07:27:31;20.87;;;14.03;;
12429;SDS011;6279;42.192;24.326;2023-02-28T07:29:56;21.67;;;13.80;;
12429;SDS011;6279;42.192;24.326;2023-02-28T07:32:22;23.43;;;14.27;;
12429;SDS011;6279;42.192;24.326;2023-02-28T07:34:47;21.13;;;13.97;;
12429;SDS011;6279;42.192;24.326;2023-02-28T07:37:13;22.27;;;14.57;;
12429;SDS011;6279;42.192;24.326;2023-02-28T07:39:39;22.23;;;10.67;;
12429;SDS011;6279;42.192;24.326;2023-02-28T07:42:07;19.63;;;13.67;;
12429;SDS011;6279;42.192;24.326;2023-02-28T07:44:35;18.27;;;12.53;;
12429;SDS011;6279;42.192;24.326;2023-02-28T07:47:05;23.07;;;13.27;;
12429;SDS011;6279;42.192;24.326;2023-02-28T07:49:34;21.30;;;15.23;;
12429;SDS011;6279;42.192;24.326;2023-02-28T07:52:06;25.03;;;14.83;;
12429;SDS011;6279;42.192;24.326;2023-02-28T07:54:32;23.37;;;14.60;;
12429;SDS011;6279;42.192;24.326;2023-02-28T07:56:58;24.87;;;13.73;;
12429;SDS011;6279;42.192;24.326;2023-02-28T07:59:24;15.33;;;10.10;;
12429;SDS011;6279;42.192;24.326;2023-02-28T08:01:50;21.20;;;13.93;;
12429;SDS011;6279;42.192;24.326;2023-02-28T08:04:16;19.70;;;13.57;;
12429;SDS011;6279;42.192;24.326;2023-02-28T08:06:43;24.90;;;14.60;;
12429;SDS011;6279;42.192;24.326;2023-02-28T08:09:08;19.53;;;13.23;;
12429;SDS011;6279;42.192;24.326;2023-02-28T08:11:34;23.27;;;15.10;;
12429;SDS011;6279;42.192;24.326;2023-02-28T08:13:59;26.67;;;15.30;;
12429;SDS011;6279;42.192;24.326;2023-02-28T08:16:25;29.30;;;16.43;;
12429;SDS011;6279;42.192;24.326;2023-02-28T08:18:51;29.43;;;15.83;;
12429;SDS011;6279;42.192;24.326;2023-02-28T08:21:17;22.47;;;14.63;;
12429;SDS011;6279;42.192;24.326;2023-02-28T08:23:43;23.50;;;15.00;;
12429;SDS011;6279;42.192;24.326;2023-02-28T08:26:09;26.67;;;15.33;;
12429;SDS011;6279;42.192;24.326;2023-02-28T08:28:34;22.67;;;15.53;;
12429;SDS011;6279;42.192;24.326;2023-02-28T08:31:00;21.13;;;16.07;;
12429;SDS011;6279;42.192;24.326;2023-02-28T08:33:26;27.23;;;16.27;;
12429;SDS011;6279;42.192;24.326;2023-02-28T08:35:53;24.90;;;15.87;;
12429;SDS011;6279;42.192;24.326;2023-02-28T08:38:19;22.33;;;14.93;;
12429;SDS011;6279;42.192;24.326;2023-02-28T08:40:44;24.70;;;17.13;;
12429;SDS011;6279;42.192;24.326;2023-02-28T08:43:10;19.83;;;13.57;;
12429;SDS011;6279;42.192;24.326;2023-02-28T08:45:35;23.50;;;14.93;;
12429;SDS011;6279;42.192;24.326;2023-02-28T08:48:01;23.57;;;16.13;;
12429;SDS011;6279;42.192;24.326;2023-02-28T08:50:26;25.57;;;15.97;;
12429;SDS011;6279;42.192;24.326;2023-02-28T08:52:51;23.93;;;16.50;;
12429;SDS011;6279;42.192;24.326;2023-02-28T08:55:17;24.73;;;16.07;;
12429;SDS011;6279;42.192;24.326;2023-02-28T08:57:42;25.60;;;17.03;;
12429;SDS011;6279;42.192;24.326;2023-02-28T09:00:08;25.33;;;15.63;;
12429;SDS011;6279;42.192;24.326;2023-02-28T09:02:35;25.30;;;15.40;;
12429;SDS011;6279;42.192;24.326;2023-02-28T09:05:01;26.87;;;18.03;;
12429;SDS011;6279;42.192;24.326;2023-02-28T09:07:28;28.10;;;17.33;;
12429;SDS011;6279;42.192;24.326;2023-02-28T09:09:53;31.23;;;19.03;;
12429;SDS011;6279;42.192;24.326;2023-02-28T09:12:20;24.87;;;15.57;;
12429;SDS011;6279;42.192;24.326;2023-02-28T09:14:49;22.77;;;15.93;;
12429;SDS011;6279;42.192;24.326;2023-02-28T09:17:14;26.37;;;16.07;;
12429;SDS011;6279;42.192;24.326;2023-02-28T09:19:40;19.97;;;15.27;;
12429;SDS011;6279;42.192;24.326;2023-02-28T09:22:05;18.27;;;13.00;;
12429;SDS011;6279;42.192;24.326;2023-02-28T09:24:31;20.20;;;14.70;;
12429;SDS011;6279;42.192;24.326;2023-02-28T09:26:56;25.30;;;16.27;;
12429;SDS011;6279;42.192;24.326;2023-02-28T09:29:22;23.33;;;15.03;;
12429;SDS011;6279;42.192;24.326;2023-02-28T09:31:47;24.70;;;16.57;;
12429;SDS011;6279;42.192;24.326;2023-02-28T09:34:13;23.53;;;16.47;;
12429;SDS011;6279;42.192;24.326;2023-02-28T09:36:38;31.40;;;19.87;;
12429;SDS011;6279;42.192;24.326;2023-02-28T09:39:04;30.63;;;18.37;;
12429;SDS011;6279;42.192;24.326;2023-02-28T09:41:32;30.33;;;19.00;;
12429;SDS011;6279;42.192;24.326;2023-02-28T09:44:05;27.13;;;17.93;;
12429;SDS011;6279;42.192;24.326;2023-02-28T09:46:34;28.37;;;18.83;;
12429;SDS011;6279;42.192;24.326;2023-02-28T09:49:07;39.40;;;22.00;;
12429;SDS011;6279;42.192;24.326;2023-02-28T09:51:50;35.23;;;20.70;;
12429;SDS011;6279;42.192;24.326;2023-02-28T09:54:39;29.73;;;18.97;;
12429;SDS011;6279;42.192;24.326;2023-02-28T10:05:01;25.30;;;18.87;;
12429;SDS011;6279;42.192;24.326;2023-02-28T10:07:37;28.20;;;19.23;;
12429;SDS011;6279;42.192;24.326;2023-02-28T10:10:21;32.23;;;19.47;;
12429;SDS011;6279;42.192;24.326;2023-02-28T10:12:48;29.20;;;18.73;;
12429;SDS011;6279;42.192;24.326;2023-02-28T10:15:18;27.57;;;18.80;;
12429;SDS011;6279;42.192;24.326;2023-02-28T10:17:45;30.40;;;18.37;;
12429;SDS011;6279;42.192;24.326;2023-02-28T10:20:15;35.10;;;19.33;;
12429;SDS011;6279;42.192;24.326;2023-02-28T10:22:57;25.53;;;17.97;;
12429;SDS011;6279;42.192;24.326;2023-02-28T10:25:32;31.20;;;17.97;;
12429;SDS011;6279;42.192;24.326;2023-02-28T10:28:01;28.47;;;17.97;;
12429;SDS011;6279;42.192;24.326;2023-02-28T10:30:34;31.03;;;19.23;;
12429;SDS011;6279;42.192;24.326;2023-02-28T10:33:02;27.13;;;18.57;;
12429;SDS011;6279;42.192;24.326;2023-02-28T10:35:27;30.77;;;19.03;;
12429;SDS011;6279;42.192;24.326;2023-02-28T10:37:57;23.57;;;16.43;;
12429;SDS011;6279;42.192;24.326;2023-02-28T10:40:26;25.70;;;17.40;;
12429;SDS011;6279;42.192;24.326;2023-02-28T10:45:34;24.90;;;18.20;;
12429;SDS011;6279;42.192;24.326;2023-02-28T10:50:36;25.83;;;17.50;;
12429;SDS011;6279;42.192;24.326;2023-02-28T10:58:48;24.80;;;16.53;;
12429;SDS011;6279;42.192;24.326;2023-02-28T11:01:37;27.30;;;16.97;;
12429;SDS011;6279;42.192;24.326;2023-02-28T11:04:11;27.47;;;17.90;;
12429;SDS011;6279;42.192;24.326;2023-02-28T11:06:43;28.50;;;19.83;;
12429;SDS011;6279;42.192;24.326;2023-02-28T11:09:41;26.90;;;16.83;;
12429;SDS011;6279;42.192;24.326;2023-02-28T11:12:00;22.73;;;15.50;;
12429;SDS011;6279;42.192;24.326;2023-02-28T11:14:31;29.50;;;18.23;;
12429;SDS011;6279;42.192;24.326;2023-02-28T11:17:11;27.53;;;20.47;;
12429;SDS011;6279;42.192;24.326;2023-02-28T11:19:45;31.30;;;21.37;;
12429;SDS011;6279;42.192;24.326;2023-02-28T11:22:16;25.83;;;18.63;;
12429;SDS011;6279;42.192;24.326;2023-02-28T11:24:47;26.30;;;19.40;;
12429;SDS011;6279;42.192;24.326;2023-02-28T11:29:50;30.03;;;20.87;;
12429;SDS011;6279;42.192;24.326;2023-02-28T11:32:16;31.77;;;21.10;;
12429;SDS011;6279;42.192;24.326;2023-02-28T11:34:47;36.93;;;21.67;;
12429;SDS011;6279;42.192;24.326;2023-02-28T11:37:38;31.83;;;22.03;;
12429;SDS011;6279;42.192;24.326;2023-02-28T11:40:28;31.17;;;22.47;;
12429;SDS011;6279;42.192;24.326;2023-02-28T11:42:57;28.63;;;21.50;;
12429;SDS011;6279;42.192;24.326;2023-02-28T11:51:06;28.53;;;20.63;;
12429;SDS011;6279;42.192;24.326;2023-02-28T11:56:39;26.50;;;19.93;;
12429;SDS011;6279;42.192;24.326;2023-02-28T12:07:39;34.00;;;21.80;;
12429;SDS011;6279;42.192;24.326;2023-02-28T12:10:26;26.00;;;20.50;;
12429;SDS011;6279;42.192;24.326;2023-02-28T12:18:48;33.83;;;23.77;;
12429;SDS011;6279;42.192;24.326;2023-02-28T12:24:26;39.70;;;26.83;;
12429;SDS011;6279;42.192;24.326;2023-02-28T12:27:05;44.27;;;26.30;;
12429;SDS011;6279;42.192;24.326;2023-02-28T12:29:56;38.07;;;21.00;;
12429;SDS011;6279;42.192;24.326;2023-02-28T12:32:35;41.20;;;27.27;;
12429;SDS011;6279;42.192;24.326;2023-02-28T12:40:16;41.47;;;28.47;;
12429;SDS011;6279;42.192;24.326;2023-02-28T12:42:46;41.87;;;27.13;;
12429;SDS011;6279;42.192;24.326;2023-02-28T12:45:19;47.53;;;29.70;;
12429;SDS011;6279;42.192;24.326;2023-02-28T12:47:48;48.07;;;30.83;;
12429;SDS011;6279;42.192;24.326;2023-02-28T12:50:17;40.93;;;27.33;;
12429;SDS011;6279;42.192;24.326;2023-02-28T12:53:01;42.53;;;27.03;;
12429;SDS011;6279;42.192;24.326;2023-02-28T13:09:30;51.60;;;30.17;;
12429;SDS011;6279;42.192;24.326;2023-02-28T13:11:56;44.13;;;29.57;;
12429;SDS011;6279;42.192;24.326;2023-02-28T13:14:28;44.57;;;27.03;;
12429;SDS011;6279;42.192;24.326;2023-02-28T13:19:34;43.07;;;27.97;;
12429;SDS011;6279;42.192;24.326;2023-02-28T13:22:05;49.10;;;28.97;;
12429;SDS011;6279;42.192;24.326;2023-02-28T13:24:51;45.33;;;27.93;;
12429;SDS011;6279;42.192;24.326;2023-02-28T13:27:31;52.60;;;34.20;;
12429;SDS011;6279;42.192;24.326;2023-02-28T13:29:59;40.70;;;24.20;;
12429;SDS011;6279;42.192;24.326;2023-02-28T13:39:45;51.97;;;33.43;;
12429;SDS011;6279;42.192;24.326;2023-02-28T13:42:33;45.17;;;30.27;;
12429;SDS011;6279;42.192;24.326;2023-02-28T13:50:14;42.70;;;29.03;;
12429;SDS011;6279;42.192;24.326;2023-02-28T13:53:21;44.80;;;29.33;;
12429;SDS011;6279;42.192;24.326;2023-02-28T14:06:50;43.13;;;30.57;;
12429;SDS011;6279;42.192;24.326;2023-02-28T14:11:54;50.33;;;33.13;;
12429;SDS011;6279;42.192;24.326;2023-02-28T14:17:03;41.03;;;27.50;;
12429;SDS011;6279;42.192;24.326;2023-02-28T14:19:32;45.77;;;31.87;;
12429;SDS011;6279;42.192;24.326;2023-02-28T14:27:58;44.83;;;31.97;;
12429;SDS011;6279;42.192;24.326;2023-02-28T14:33:44;40.37;;;29.53;;
12429;SDS011;6279;42.192;24.326;2023-02-28T14:36:14;41.63;;;30.10;;
12429;SDS011;6279;42.192;24.326;2023-02-28T14:38:56;40.87;;;30.27;;
12429;SDS011;6279;42.192;24.326;2023-02-28T14:41:32;51.27;;;34.87;;
12429;SDS011;6279;42.192;24.326;2023-02-28T14:44:17;43.53;;;31.27;;
12429;SDS011;6279;42.192;24.326;2023-02-28T14:46:52;40.57;;;27.87;;
12429;SDS011;6279;42.192;24.326;2023-02-28T14:54:31;46.43;;;34.93;;
12429;SDS011;6279;42.192;24.326;2023-02-28T14:56:56;41.70;;;31.63;;
12429;SDS011;6279;42.192;24.326;2023-02-28T14:59:28;41.73;;;31.43;;
12429;SDS011;6279;42.192;24.326;2023-02-28T15:02:17;43.90;;;32.50;;
12429;SDS011;6279;42.192;24.326;2023-02-28T15:04:51;39.20;;;30.87;;
12429;SDS011;6279;42.192;24.326;2023-02-28T15:07:19;44.63;;;32.40;;
12429;SDS011;6279;42.192;24.326;2023-02-28T15:09:44;43.27;;;31.73;;
12429;SDS011;6279;42.192;24.326;2023-02-28T15:12:13;42.63;;;31.60;;
12429;SDS011;6279;42.192;24.326;2023-02-28T15:14:41;41.20;;;31.20;;
12429;SDS011;6279;42.192;24.326;2023-02-28T15:17:14;43.00;;;31.67;;
12429;SDS011;6279;42.192;24.326;2023-02-28T15:19:47;44.27;;;31.13;;
12429;SDS011;6279;42.192;24.326;2023-02-28T15:22:17;39.30;;;27.30;;
12429;SDS011;6279;42.192;24.326;2023-02-28T15:24:51;35.83;;;26.33;;
12429;SDS011;6279;42.192;24.326;2023-02-28T15:27:22;37.37;;;28.23;;
12429;SDS011;6279;42.192;24.326;2023-02-28T15:29:53;42.17;;;28.90;;
12429;SDS011;6279;42.192;24.326;2023-02-28T15:32:28;41.00;;;30.40;;
12429;SDS011;6279;42.192;24.326;2023-02-28T15:34:55;40.73;;;29.10;;
12429;SDS011;6279;42.192;24.326;2023-02-28T15:40:46;32.63;;;24.07;;
12429;SDS011;6279;42.192;24.326;2023-02-28T15:43:28;35.97;;;26.33;;
12429;SDS011;6279;42.192;24.326;2023-02-28T15:46:06;33.43;;;25.60;;
12429;SDS011;6279;42.192;24.326;2023-02-28T15:48:51;31.97;;;24.17;;
12429;SDS011;6279;42.192;24.326;2023-02-28T15:51:22;32.67;;;25.33;;
12429;SDS011;6279;42.192;24.326;2023-02-28T15:53:59;40.83;;;27.80;;
12429;SDS011;6279;42.192;24.326;2023-02-28T15:56:29;35.50;;;25.40;;
12429;SDS011;6279;42.192;24.326;2023-02-28T15:58:56;35.57;;;25.30;;
12429;SDS011;6279;42.192;24.326;2023-02-28T16:01:27;35.40;;;26.10;;
12429;SDS011;6279;42.192;24.326;2023-02-28T16:03:59;33.63;;;24.30;;
12429;SDS011;6279;42.192;24.326;2023-02-28T16:06:37;35.43;;;25.57;;
12429;SDS011;6279;42.192;24.326;2023-02-28T16:09:08;39.20;;;29.40;;
12429;SDS011;6279;42.192;24.326;2023-02-28T16:11:38;31.23;;;23.80;;
12429;SDS011;6279;42.192;24.326;2023-02-28T16:14:06;35.10;;;25.53;;
12429;SDS011;6279;42.192;24.326;2023-02-28T16:16:41;32.27;;;23.13;;
12429;SDS011;6279;42.192;24.326;2023-02-28T16:19:08;32.00;;;22.10;;
12429;SDS011;6279;42.192;24.326;2023-02-28T16:21:33;29.23;;;22.00;;
12429;SDS011;6279;42.192;24.326;2023-02-28T16:23:58;29.30;;;20.03;;
12429;SDS011;6279;42.192;24.326;2023-02-28T16:26:24;27.33;;;20.70;;
12429;SDS011;6279;42.192;24.326;2023-02-28T16:28:52;29.87;;;20.63;;
12429;SDS011;6279;42.192;24.326;2023-02-28T16:31:18;26.30;;;20.37;;
12429;SDS011;6279;42.192;24.326;2023-02-28T16:33:46;20.70;;;15.20;;
12429;SDS011;6279;42.192;24.326;2023-02-28T16:36:13;25.77;;;18.03;;
12429;SDS011;6279;42.192;24.326;2023-02-28T16:38:43;27.80;;;20.70;;
12429;SDS011;6279;42.192;24.326;2023-02-28T16:41:11;27.17;;;20.00;;
12429;SDS011;6279;42.192;24.326;2023-02-28T16:43:42;30.40;;;21.63;;
12429;SDS011;6279;42.192;24.326;2023-02-28T16:49:12;21.80;;;15.73;;
12429;SDS011;6279;42.192;24.326;2023-02-28T16:51:38;19.83;;;12.03;;
12429;SDS011;6279;42.192;24.326;2023-02-28T16:54:03;23.53;;;17.30;;
12429;SDS011;6279;42.192;24.326;2023-02-28T16:56:29;22.80;;;16.33;;
12429;SDS011;6279;42.192;24.326;2023-02-28T16:58:55;25.73;;;18.60;;
12429;SDS011;6279;42.192;24.326;2023-02-28T17:01:25;28.67;;;20.07;;
12429;SDS011;6279;42.192;24.326;2023-02-28T17:03:52;14.73;;;10.43;;
12429;SDS011;6279;42.192;24.326;2023-02-28T17:06:24;21.13;;;15.03;;
12429;SDS011;6279;42.192;24.326;2023-02-28T17:08:53;18.87;;;11.90;;
12429;SDS011;6279;42.192;24.326;2023-02-28T17:11:19;19.20;;;14.23;;
12429;SDS011;6279;42.192;24.326;2023-02-28T17:13:45;23.93;;;18.37;;
12429;SDS011;6279;42.192;24.326;2023-02-28T17:16:17;29.50;;;20.47;;